sensor_id;sensor_type;location;lat;lon;timestamp;P1;durP1;ratioP1;P2;durP2;ratioP2
37647;SDS011;23490;53.656;10.076;2022-10-13T00:00:54;7.45;;;2.90;;
37647;SDS011;23490;53.656;10.076;2022-10-13T00:03:19;8.52;;;2.65;;
37647;SDS011;23490;53.656;10.076;2022-10-13T00:05:46;8.65;;;3.10;;
37647;SDS011;23490;53.656;10.076;2022-10-13T00:08:13;10.55;;;2.97;;
37647;SDS011;23490;53.656;10.076;2022-10-13T00:10:39;9.55;;;2.80;;
37647;SDS011;23490;53.656;10.076;2022-10-13T00:13:06;9.75;;;3.08;;
37647;SDS011;23490;53.656;10.076;2022-10-13T00:15:32;9.60;;;3.22;;
37647;SDS011;23490;53.656;10.076;2022-10-13T00:18:02;10.25;;;2.95;;
37647;SDS011;23490;53.656;10.076;2022-10-13T00:20:27;9.70;;;3.22;;
37647;SDS011;23490;53.656;10.076;2022-10-13T00:22:52;8.77;;;3.05;;
37647;SDS011;23490;53.656;10.076;2022-10-13T00:25:18;10.27;;;3.35;;
37647;SDS011;23490;53.656;10.076;2022-10-13T00:27:43;7.80;;;3.13;;
37647;SDS011;23490;53.656;10.076;2022-10-13T00:30:08;6.93;;;3.00;;
37647;SDS011;23490;53.656;10.076;2022-10-13T00:32:34;10.63;;;3.15;;
37647;SDS011;23490;53.656;10.076;2022-10-13T00:34:59;11.73;;;3.30;;
37647;SDS011;23490;53.656;10.076;2022-10-13T00:37:25;9.60;;;3.03;;
37647;SDS011;23490;53.656;10.076;2022-10-13T00:39:50;15.25;;;3.08;;
37647;SDS011;23490;53.656;10.076;2022-10-13T00:42:15;7.97;;;3.20;;
37647;SDS011;23490;53.656;10.076;2022-10-13T00:47:24;6.40;;;2.90;;
37647;SDS011;23490;53.656;10.076;2022-10-13T00:49:52;6.38;;;3.05;;
37647;SDS011;23490;53.656;10.076;2022-10-13T00:52:19;11.88;;;3.22;;
37647;SDS011;23490;53.656;10.076;2022-10-13T00:54:46;9.07;;;3.20;;
37647;SDS011;23490;53.656;10.076;2022-10-13T00:57:13;7.72;;;2.97;;
37647;SDS011;23490;53.656;10.076;2022-10-13T00:59:38;8.75;;;2.85;;
37647;SDS011;23490;53.656;10.076;2022-10-13T01:02:05;9.75;;;3.17;;
37647;SDS011;23490;53.656;10.076;2022-10-13T01:04:32;10.32;;;3.58;;
37647;SDS011;23490;53.656;10.076;2022-10-13T01:07:01;9.43;;;3.08;;
37647;SDS011;23490;53.656;10.076;2022-10-13T01:09:28;6.63;;;3.08;;
37647;SDS011;23490;53.656;10.076;2022-10-13T01:12:07;9.45;;;3.05;;
37647;SDS011;23490;53.656;10.076;2022-10-13T01:15:16;11.13;;;3.42;;
37647;SDS011;23490;53.656;10.076;2022-10-13T01:20:47;10.05;;;2.83;;
37647;SDS011;23490;53.656;10.076;2022-10-13T01:28:52;11.30;;;3.05;;
37647;SDS011;23490;53.656;10.076;2022-10-13T01:31:46;8.38;;;2.85;;
37647;SDS011;23490;53.656;10.076;2022-10-13T01:34:20;8.23;;;3.13;;
37647;SDS011;23490;53.656;10.076;2022-10-13T01:37:06;8.07;;;3.05;;
37647;SDS011;23490;53.656;10.076;2022-10-13T01:40:04;9.65;;;2.90;;
37647;SDS011;23490;53.656;10.076;2022-10-13T01:42:43;7.15;;;3.03;;
37647;SDS011;23490;53.656;10.076;2022-10-13T01:45:15;7.80;;;3.20;;
37647;SDS011;23490;53.656;10.076;2022-10-13T01:47:43;8.70;;;3.30;;
37647;SDS011;23490;53.656;10.076;2022-10-13T01:50:12;9.75;;;3.25;;
37647;SDS011;23490;53.656;10.076;2022-10-13T01:52:40;9.68;;;3.47;;
37647;SDS011;23490;53.656;10.076;2022-10-13T01:55:07;8.00;;;2.90;;
37647;SDS011;23490;53.656;10.076;2022-10-13T01:57:39;7.28;;;2.88;;
37647;SDS011;23490;53.656;10.076;2022-10-13T02:00:10;8.30;;;2.88;;
37647;SDS011;23490;53.656;10.076;2022-10-13T02:08:18;10.82;;;3.55;;
37647;SDS011;23490;53.656;10.076;2022-10-13T02:10:48;9.45;;;3.15;;
37647;SDS011;23490;53.656;10.076;2022-10-13T02:13:18;11.13;;;3.10;;
37647;SDS011;23490;53.656;10.076;2022-10-13T02:15:48;7.47;;;3.00;;
37647;SDS011;23490;53.656;10.076;2022-10-13T02:18:17;10.60;;;3.53;;
37647;SDS011;23490;53.656;10.076;2022-10-13T02:20:46;7.53;;;3.10;;
37647;SDS011;23490;53.656;10.076;2022-10-13T02:23:12;7.45;;;3.10;;
37647;SDS011;23490;53.656;10.076;2022-10-13T02:25:40;7.05;;;2.80;;
37647;SDS011;23490;53.656;10.076;2022-10-13T02:28:06;8.50;;;3.53;;
37647;SDS011;23490;53.656;10.076;2022-10-13T02:30:33;9.63;;;3.20;;
37647;SDS011;23490;53.656;10.076;2022-10-13T02:32:59;7.50;;;3.30;;
37647;SDS011;23490;53.656;10.076;2022-10-13T02:35:25;6.82;;;2.83;;
37647;SDS011;23490;53.656;10.076;2022-10-13T02:37:51;8.20;;;2.90;;
37647;SDS011;23490;53.656;10.076;2022-10-13T02:40:16;8.30;;;3.30;;
37647;SDS011;23490;53.656;10.076;2022-10-13T02:42:42;9.25;;;3.20;;
37647;SDS011;23490;53.656;10.076;2022-10-13T02:45:07;7.22;;;2.90;;
37647;SDS011;23490;53.656;10.076;2022-10-13T02:47:33;6.10;;;3.00;;
37647;SDS011;23490;53.656;10.076;2022-10-13T02:49:59;8.80;;;3.22;;
37647;SDS011;23490;53.656;10.076;2022-10-13T02:52:24;8.15;;;3.00;;
37647;SDS011;23490;53.656;10.076;2022-10-13T02:54:49;10.80;;;3.40;;
37647;SDS011;23490;53.656;10.076;2022-10-13T02:57:16;8.82;;;3.35;;
37647;SDS011;23490;53.656;10.076;2022-10-13T02:59:42;6.65;;;3.20;;
37647;SDS011;23490;53.656;10.076;2022-10-13T03:02:07;7.93;;;3.55;;
37647;SDS011;23490;53.656;10.076;2022-10-13T03:04:33;9.57;;;4.30;;
37647;SDS011;23490;53.656;10.076;2022-10-13T03:06:58;8.15;;;3.30;;
37647;SDS011;23490;53.656;10.076;2022-10-13T03:09:23;9.32;;;3.30;;
37647;SDS011;23490;53.656;10.076;2022-10-13T03:11:49;8.73;;;3.30;;
37647;SDS011;23490;53.656;10.076;2022-10-13T03:14:14;15.05;;;3.72;;
37647;SDS011;23490;53.656;10.076;2022-10-13T03:16:39;9.50;;;4.10;;
37647;SDS011;23490;53.656;10.076;2022-10-13T03:19:05;10.82;;;3.10;;
37647;SDS011;23490;53.656;10.076;2022-10-13T03:21:30;9.55;;;3.63;;
37647;SDS011;23490;53.656;10.076;2022-10-13T03:23:55;8.52;;;3.55;;
37647;SDS011;23490;53.656;10.076;2022-10-13T03:26:21;9.30;;;3.42;;
37647;SDS011;23490;53.656;10.076;2022-10-13T03:28:49;12.38;;;4.10;;
37647;SDS011;23490;53.656;10.076;2022-10-13T03:31:16;11.95;;;4.07;;
37647;SDS011;23490;53.656;10.076;2022-10-13T03:33:42;11.45;;;4.18;;
37647;SDS011;23490;53.656;10.076;2022-10-13T03:36:09;10.75;;;3.90;;
37647;SDS011;23490;53.656;10.076;2022-10-13T03:38:35;17.35;;;4.35;;
37647;SDS011;23490;53.656;10.076;2022-10-13T03:41:10;8.48;;;3.70;;
37647;SDS011;23490;53.656;10.076;2022-10-13T03:43:38;9.20;;;3.78;;
37647;SDS011;23490;53.656;10.076;2022-10-13T03:46:05;9.05;;;4.03;;
37647;SDS011;23490;53.656;10.076;2022-10-13T03:48:32;10.18;;;3.83;;
37647;SDS011;23490;53.656;10.076;2022-10-13T03:50:59;8.75;;;4.35;;
37647;SDS011;23490;53.656;10.076;2022-10-13T03:53:28;9.32;;;4.55;;
37647;SDS011;23490;53.656;10.076;2022-10-13T03:55:54;10.88;;;4.55;;
37647;SDS011;23490;53.656;10.076;2022-10-13T03:58:20;12.57;;;4.60;;
37647;SDS011;23490;53.656;10.076;2022-10-13T04:00:47;11.25;;;5.43;;
37647;SDS011;23490;53.656;10.076;2022-10-13T04:03:13;13.77;;;5.38;;
37647;SDS011;23490;53.656;10.076;2022-10-13T04:05:39;8.77;;;4.38;;
37647;SDS011;23490;53.656;10.076;2022-10-13T04:08:05;8.00;;;3.80;;
37647;SDS011;23490;53.656;10.076;2022-10-13T04:10:30;10.80;;;4.22;;
37647;SDS011;23490;53.656;10.076;2022-10-13T04:12:56;8.80;;;4.10;;
37647;SDS011;23490;53.656;10.076;2022-10-13T04:15:21;14.07;;;4.88;;
37647;SDS011;23490;53.656;10.076;2022-10-13T04:17:47;7.32;;;4.22;;
37647;SDS011;23490;53.656;10.076;2022-10-13T04:20:13;12.23;;;4.47;;
37647;SDS011;23490;53.656;10.076;2022-10-13T04:22:38;12.25;;;4.35;;
37647;SDS011;23490;53.656;10.076;2022-10-13T04:25:04;9.65;;;4.50;;
37647;SDS011;23490;53.656;10.076;2022-10-13T04:27:30;11.20;;;4.03;;
37647;SDS011;23490;53.656;10.076;2022-10-13T04:29:55;8.65;;;4.28;;
37647;SDS011;23490;53.656;10.076;2022-10-13T04:32:20;9.82;;;4.30;;
37647;SDS011;23490;53.656;10.076;2022-10-13T04:34:46;10.23;;;4.10;;
37647;SDS011;23490;53.656;10.076;2022-10-13T04:37:11;9.05;;;4.07;;
37647;SDS011;23490;53.656;10.076;2022-10-13T04:39:36;13.38;;;4.43;;
37647;SDS011;23490;53.656;10.076;2022-10-13T04:42:02;9.30;;;4.22;;
37647;SDS011;23490;53.656;10.076;2022-10-13T04:44:27;9.50;;;4.45;;
37647;SDS011;23490;53.656;10.076;2022-10-13T04:46:53;7.07;;;4.00;;
37647;SDS011;23490;53.656;10.076;2022-10-13T04:49:18;10.68;;;4.38;;
37647;SDS011;23490;53.656;10.076;2022-10-13T04:51:43;11.43;;;4.75;;
37647;SDS011;23490;53.656;10.076;2022-10-13T04:54:09;11.27;;;4.80;;
37647;SDS011;23490;53.656;10.076;2022-10-13T04:56:34;10.48;;;5.18;;
37647;SDS011;23490;53.656;10.076;2022-10-13T04:59:00;13.75;;;5.05;;
37647;SDS011;23490;53.656;10.076;2022-10-13T05:01:29;9.20;;;4.85;;
37647;SDS011;23490;53.656;10.076;2022-10-13T05:03:55;11.85;;;4.97;;
37647;SDS011;23490;53.656;10.076;2022-10-13T05:06:23;7.90;;;3.92;;
37647;SDS011;23490;53.656;10.076;2022-10-13T05:08:49;10.73;;;4.88;;
37647;SDS011;23490;53.656;10.076;2022-10-13T05:11:15;10.30;;;4.22;;
37647;SDS011;23490;53.656;10.076;2022-10-13T05:13:41;7.85;;;4.35;;
37647;SDS011;23490;53.656;10.076;2022-10-13T05:16:10;10.10;;;5.22;;
37647;SDS011;23490;53.656;10.076;2022-10-13T05:18:37;8.38;;;4.93;;
37647;SDS011;23490;53.656;10.076;2022-10-13T05:21:14;9.52;;;4.50;;
37647;SDS011;23490;53.656;10.076;2022-10-13T05:23:41;12.27;;;5.43;;
37647;SDS011;23490;53.656;10.076;2022-10-13T05:26:08;11.10;;;5.38;;
37647;SDS011;23490;53.656;10.076;2022-10-13T05:28:35;12.23;;;4.45;;
37647;SDS011;23490;53.656;10.076;2022-10-13T05:31:14;11.23;;;5.25;;
37647;SDS011;23490;53.656;10.076;2022-10-13T05:33:41;10.82;;;4.63;;
37647;SDS011;23490;53.656;10.076;2022-10-13T05:36:08;10.82;;;5.22;;
37647;SDS011;23490;53.656;10.076;2022-10-13T05:38:38;10.98;;;5.05;;
37647;SDS011;23490;53.656;10.076;2022-10-13T05:41:05;10.68;;;5.25;;
37647;SDS011;23490;53.656;10.076;2022-10-13T05:43:31;12.30;;;4.90;;
37647;SDS011;23490;53.656;10.076;2022-10-13T05:45:58;11.73;;;4.88;;
37647;SDS011;23490;53.656;10.076;2022-10-13T05:48:24;15.10;;;5.75;;
37647;SDS011;23490;53.656;10.076;2022-10-13T05:50:50;10.57;;;4.82;;
37647;SDS011;23490;53.656;10.076;2022-10-13T05:53:16;11.32;;;4.82;;
37647;SDS011;23490;53.656;10.076;2022-10-13T05:55:43;12.35;;;5.78;;
37647;SDS011;23490;53.656;10.076;2022-10-13T05:58:08;13.00;;;5.97;;
37647;SDS011;23490;53.656;10.076;2022-10-13T06:00:34;12.00;;;5.13;;
37647;SDS011;23490;53.656;10.076;2022-10-13T06:03:03;11.82;;;4.95;;
37647;SDS011;23490;53.656;10.076;2022-10-13T06:05:33;10.65;;;5.10;;
37647;SDS011;23490;53.656;10.076;2022-10-13T06:07:59;15.23;;;5.93;;
37647;SDS011;23490;53.656;10.076;2022-10-13T06:10:24;13.98;;;6.43;;
37647;SDS011;23490;53.656;10.076;2022-10-13T06:12:50;10.65;;;5.55;;
37647;SDS011;23490;53.656;10.076;2022-10-13T06:15:16;15.15;;;5.72;;
37647;SDS011;23490;53.656;10.076;2022-10-13T06:17:41;16.80;;;7.43;;
37647;SDS011;23490;53.656;10.076;2022-10-13T06:20:07;15.40;;;5.65;;
37647;SDS011;23490;53.656;10.076;2022-10-13T06:22:33;12.80;;;5.65;;
37647;SDS011;23490;53.656;10.076;2022-10-13T06:24:59;16.13;;;6.55;;
37647;SDS011;23490;53.656;10.076;2022-10-13T06:27:25;13.05;;;5.97;;
37647;SDS011;23490;53.656;10.076;2022-10-13T06:29:50;12.50;;;5.93;;
37647;SDS011;23490;53.656;10.076;2022-10-13T06:32:16;12.68;;;5.47;;
37647;SDS011;23490;53.656;10.076;2022-10-13T06:34:41;14.25;;;5.68;;
37647;SDS011;23490;53.656;10.076;2022-10-13T06:37:07;16.95;;;5.38;;
37647;SDS011;23490;53.656;10.076;2022-10-13T06:39:33;13.88;;;6.32;;
37647;SDS011;23490;53.656;10.076;2022-10-13T06:41:59;13.88;;;5.78;;
37647;SDS011;23490;53.656;10.076;2022-10-13T06:44:24;11.73;;;5.93;;
37647;SDS011;23490;53.656;10.076;2022-10-13T06:46:49;13.30;;;5.90;;
37647;SDS011;23490;53.656;10.076;2022-10-13T06:49:15;11.70;;;5.43;;
37647;SDS011;23490;53.656;10.076;2022-10-13T06:51:40;11.50;;;5.60;;
37647;SDS011;23490;53.656;10.076;2022-10-13T06:54:05;11.95;;;5.75;;
37647;SDS011;23490;53.656;10.076;2022-10-13T06:56:31;15.20;;;5.88;;
37647;SDS011;23490;53.656;10.076;2022-10-13T06:58:56;12.90;;;5.95;;
37647;SDS011;23490;53.656;10.076;2022-10-13T07:01:21;18.42;;;6.03;;
37647;SDS011;23490;53.656;10.076;2022-10-13T07:03:48;11.43;;;5.78;;
37647;SDS011;23490;53.656;10.076;2022-10-13T07:06:14;13.32;;;5.82;;
37647;SDS011;23490;53.656;10.076;2022-10-13T07:08:39;11.77;;;6.03;;
37647;SDS011;23490;53.656;10.076;2022-10-13T07:11:06;17.45;;;6.15;;
37647;SDS011;23490;53.656;10.076;2022-10-13T07:13:32;15.27;;;7.43;;
37647;SDS011;23490;53.656;10.076;2022-10-13T07:15:58;14.60;;;6.20;;
37647;SDS011;23490;53.656;10.076;2022-10-13T07:18:27;17.63;;;6.28;;
37647;SDS011;23490;53.656;10.076;2022-10-13T07:20:52;13.73;;;7.03;;
37647;SDS011;23490;53.656;10.076;2022-10-13T07:23:17;11.40;;;6.50;;
37647;SDS011;23490;53.656;10.076;2022-10-13T07:25:42;17.90;;;7.15;;
37647;SDS011;23490;53.656;10.076;2022-10-13T07:28:08;12.07;;;6.82;;
37647;SDS011;23490;53.656;10.076;2022-10-13T07:30:33;13.20;;;6.20;;
37647;SDS011;23490;53.656;10.076;2022-10-13T07:32:59;15.32;;;6.63;;
37647;SDS011;23490;53.656;10.076;2022-10-13T07:35:24;14.85;;;6.93;;
37647;SDS011;23490;53.656;10.076;2022-10-13T07:37:51;11.55;;;6.65;;
37647;SDS011;23490;53.656;10.076;2022-10-13T07:40:17;13.82;;;6.57;;
37647;SDS011;23490;53.656;10.076;2022-10-13T07:42:42;15.52;;;6.90;;
37647;SDS011;23490;53.656;10.076;2022-10-13T07:45:07;14.52;;;7.10;;
37647;SDS011;23490;53.656;10.076;2022-10-13T07:47:33;11.63;;;6.45;;
37647;SDS011;23490;53.656;10.076;2022-10-13T07:49:59;15.95;;;7.13;;
37647;SDS011;23490;53.656;10.076;2022-10-13T07:52:24;16.17;;;7.85;;
37647;SDS011;23490;53.656;10.076;2022-10-13T07:54:49;19.33;;;6.95;;
37647;SDS011;23490;53.656;10.076;2022-10-13T07:57:15;19.85;;;7.20;;
37647;SDS011;23490;53.656;10.076;2022-10-13T07:59:41;18.75;;;7.60;;
37647;SDS011;23490;53.656;10.076;2022-10-13T08:02:07;13.57;;;6.57;;
37647;SDS011;23490;53.656;10.076;2022-10-13T08:04:33;11.25;;;6.90;;
37647;SDS011;23490;53.656;10.076;2022-10-13T08:06:59;16.33;;;6.95;;
37647;SDS011;23490;53.656;10.076;2022-10-13T08:09:26;14.75;;;6.68;;
37647;SDS011;23490;53.656;10.076;2022-10-13T08:11:51;13.32;;;7.13;;
37647;SDS011;23490;53.656;10.076;2022-10-13T08:14:17;19.75;;;7.70;;
37647;SDS011;23490;53.656;10.076;2022-10-13T08:16:43;12.18;;;6.78;;
37647;SDS011;23490;53.656;10.076;2022-10-13T08:19:12;15.15;;;7.45;;
37647;SDS011;23490;53.656;10.076;2022-10-13T08:21:39;15.88;;;7.05;;
37647;SDS011;23490;53.656;10.076;2022-10-13T08:24:05;12.45;;;6.50;;
37647;SDS011;23490;53.656;10.076;2022-10-13T08:26:33;15.50;;;7.28;;
37647;SDS011;23490;53.656;10.076;2022-10-13T08:28:58;18.30;;;7.75;;
37647;SDS011;23490;53.656;10.076;2022-10-13T08:31:24;13.48;;;7.10;;
37647;SDS011;23490;53.656;10.076;2022-10-13T08:33:49;16.20;;;8.23;;
37647;SDS011;23490;53.656;10.076;2022-10-13T08:36:16;13.68;;;7.32;;
37647;SDS011;23490;53.656;10.076;2022-10-13T08:38:42;16.70;;;7.68;;
37647;SDS011;23490;53.656;10.076;2022-10-13T08:41:13;19.65;;;7.82;;
37647;SDS011;23490;53.656;10.076;2022-10-13T08:43:40;15.07;;;7.22;;
37647;SDS011;23490;53.656;10.076;2022-10-13T08:46:10;17.20;;;9.02;;
37647;SDS011;23490;53.656;10.076;2022-10-13T08:48:39;17.42;;;8.25;;
37647;SDS011;23490;53.656;10.076;2022-10-13T08:51:06;14.70;;;7.25;;
37647;SDS011;23490;53.656;10.076;2022-10-13T08:53:32;14.88;;;7.93;;
37647;SDS011;23490;53.656;10.076;2022-10-13T08:56:02;16.25;;;7.78;;
37647;SDS011;23490;53.656;10.076;2022-10-13T08:58:33;14.18;;;7.68;;
37647;SDS011;23490;53.656;10.076;2022-10-13T09:11:20;15.13;;;7.85;;
37647;SDS011;23490;53.656;10.076;2022-10-13T09:13:46;14.18;;;8.15;;
37647;SDS011;23490;53.656;10.076;2022-10-13T09:16:12;16.95;;;7.75;;
37647;SDS011;23490;53.656;10.076;2022-10-13T09:18:37;25.20;;;8.30;;
37647;SDS011;23490;53.656;10.076;2022-10-13T09:21:10;20.25;;;7.90;;
37647;SDS011;23490;53.656;10.076;2022-10-13T09:23:40;14.65;;;7.28;;
37647;SDS011;23490;53.656;10.076;2022-10-13T09:26:06;17.33;;;7.55;;
37647;SDS011;23490;53.656;10.076;2022-10-13T09:28:39;15.20;;;8.10;;
37647;SDS011;23490;53.656;10.076;2022-10-13T09:31:22;16.13;;;8.85;;
37647;SDS011;23490;53.656;10.076;2022-10-13T09:33:59;14.80;;;8.20;;
37647;SDS011;23490;53.656;10.076;2022-10-13T09:36:27;13.65;;;7.63;;
37647;SDS011;23490;53.656;10.076;2022-10-13T09:39:03;14.60;;;8.10;;
37647;SDS011;23490;53.656;10.076;2022-10-13T09:41:29;15.60;;;8.23;;
37647;SDS011;23490;53.656;10.076;2022-10-13T09:48:52;17.98;;;8.77;;
37647;SDS011;23490;53.656;10.076;2022-10-13T09:51:57;18.55;;;8.18;;
37647;SDS011;23490;53.656;10.076;2022-10-13T09:56:53;12.50;;;7.53;;
37647;SDS011;23490;53.656;10.076;2022-10-13T09:59:29;18.00;;;7.80;;
37647;SDS011;23490;53.656;10.076;2022-10-13T10:01:58;14.95;;;7.70;;
37647;SDS011;23490;53.656;10.076;2022-10-13T10:04:32;18.67;;;9.55;;
37647;SDS011;23490;53.656;10.076;2022-10-13T10:07:04;13.93;;;8.02;;
37647;SDS011;23490;53.656;10.076;2022-10-13T10:09:36;16.13;;;8.85;;
37647;SDS011;23490;53.656;10.076;2022-10-13T10:12:05;16.30;;;8.43;;
37647;SDS011;23490;53.656;10.076;2022-10-13T10:14:37;19.13;;;9.65;;
37647;SDS011;23490;53.656;10.076;2022-10-13T10:22:39;17.13;;;8.88;;
37647;SDS011;23490;53.656;10.076;2022-10-13T10:30:42;19.50;;;9.65;;
37647;SDS011;23490;53.656;10.076;2022-10-13T10:33:49;16.33;;;9.15;;
37647;SDS011;23490;53.656;10.076;2022-10-13T10:36:21;21.00;;;9.15;;
37647;SDS011;23490;53.656;10.076;2022-10-13T10:44:50;17.73;;;9.07;;
37647;SDS011;23490;53.656;10.076;2022-10-13T10:49:48;18.45;;;8.73;;
37647;SDS011;23490;53.656;10.076;2022-10-13T10:52:19;15.98;;;8.57;;
37647;SDS011;23490;53.656;10.076;2022-10-13T10:57:55;19.80;;;8.82;;
37647;SDS011;23490;53.656;10.076;2022-10-13T11:00:21;18.45;;;9.15;;
37647;SDS011;23490;53.656;10.076;2022-10-13T11:08:46;19.05;;;9.30;;
37647;SDS011;23490;53.656;10.076;2022-10-13T11:11:35;16.77;;;8.45;;
37647;SDS011;23490;53.656;10.076;2022-10-13T11:40:32;15.68;;;8.23;;
37647;SDS011;23490;53.656;10.076;2022-10-13T11:49:09;13.00;;;7.70;;
37647;SDS011;23490;53.656;10.076;2022-10-13T11:52:03;15.05;;;7.68;;
37647;SDS011;23490;53.656;10.076;2022-10-13T11:57:25;15.10;;;7.85;;
37647;SDS011;23490;53.656;10.076;2022-10-13T11:59:53;14.35;;;8.15;;
37647;SDS011;23490;53.656;10.076;2022-10-13T12:02:24;13.73;;;8.35;;
37647;SDS011;23490;53.656;10.076;2022-10-13T12:07:51;16.20;;;8.00;;
37647;SDS011;23490;53.656;10.076;2022-10-13T12:10:22;15.85;;;8.00;;
37647;SDS011;23490;53.656;10.076;2022-10-13T12:12:53;16.27;;;7.53;;
37647;SDS011;23490;53.656;10.076;2022-10-13T12:15:30;16.08;;;8.07;;
37647;SDS011;23490;53.656;10.076;2022-10-13T12:18:00;14.15;;;8.10;;
37647;SDS011;23490;53.656;10.076;2022-10-13T12:20:27;16.48;;;7.50;;
37647;SDS011;23490;53.656;10.076;2022-10-13T12:22:54;14.95;;;7.75;;
37647;SDS011;23490;53.656;10.076;2022-10-13T12:25:22;11.80;;;6.85;;
37647;SDS011;23490;53.656;10.076;2022-10-13T12:27:51;18.10;;;8.88;;
37647;SDS011;23490;53.656;10.076;2022-10-13T12:30:19;15.45;;;7.55;;
37647;SDS011;23490;53.656;10.076;2022-10-13T12:32:59;16.80;;;8.07;;
37647;SDS011;23490;53.656;10.076;2022-10-13T12:35:26;15.30;;;7.43;;
37647;SDS011;23490;53.656;10.076;2022-10-13T12:37:54;16.10;;;7.80;;
37647;SDS011;23490;53.656;10.076;2022-10-13T12:40:21;16.92;;;7.93;;
37647;SDS011;23490;53.656;10.076;2022-10-13T12:42:47;16.95;;;7.25;;
37647;SDS011;23490;53.656;10.076;2022-10-13T12:45:15;14.15;;;7.47;;
37647;SDS011;23490;53.656;10.076;2022-10-13T12:53:00;14.93;;;6.55;;
37647;SDS011;23490;53.656;10.076;2022-10-13T12:55:44;14.73;;;7.25;;
37647;SDS011;23490;53.656;10.076;2022-10-13T12:58:23;11.63;;;5.95;;
37647;SDS011;23490;53.656;10.076;2022-10-13T13:01:33;13.38;;;7.15;;
37647;SDS011;23490;53.656;10.076;2022-10-13T13:03:40;12.80;;;6.82;;
37647;SDS011;23490;53.656;10.076;2022-10-13T13:08:38;14.23;;;6.90;;
37647;SDS011;23490;53.656;10.076;2022-10-13T13:11:06;15.30;;;7.28;;
37647;SDS011;23490;53.656;10.076;2022-10-13T13:13:44;17.08;;;7.32;;
37647;SDS011;23490;53.656;10.076;2022-10-13T13:16:14;14.80;;;7.30;;
37647;SDS011;23490;53.656;10.076;2022-10-13T13:18:44;21.55;;;9.27;;
37647;SDS011;23490;53.656;10.076;2022-10-13T13:21:13;17.65;;;8.52;;
37647;SDS011;23490;53.656;10.076;2022-10-13T13:23:39;14.88;;;6.90;;
37647;SDS011;23490;53.656;10.076;2022-10-13T13:26:13;13.68;;;7.72;;
37647;SDS011;23490;53.656;10.076;2022-10-13T13:28:45;18.33;;;7.93;;
37647;SDS011;23490;53.656;10.076;2022-10-13T13:31:15;15.90;;;7.60;;
37647;SDS011;23490;53.656;10.076;2022-10-13T13:33:41;14.70;;;7.60;;
37647;SDS011;23490;53.656;10.076;2022-10-13T13:36:28;18.60;;;7.70;;
37647;SDS011;23490;53.656;10.076;2022-10-13T13:38:54;11.10;;;6.47;;
37647;SDS011;23490;53.656;10.076;2022-10-13T13:41:20;14.50;;;6.97;;
37647;SDS011;23490;53.656;10.076;2022-10-13T13:43:45;16.10;;;7.75;;
37647;SDS011;23490;53.656;10.076;2022-10-13T13:46:17;15.25;;;7.93;;
37647;SDS011;23490;53.656;10.076;2022-10-13T13:48:44;13.35;;;7.65;;
37647;SDS011;23490;53.656;10.076;2022-10-13T13:51:10;16.95;;;8.45;;
37647;SDS011;23490;53.656;10.076;2022-10-13T13:53:35;11.40;;;6.82;;
37647;SDS011;23490;53.656;10.076;2022-10-13T13:56:01;16.50;;;7.82;;
37647;SDS011;23490;53.656;10.076;2022-10-13T13:58:26;17.45;;;7.13;;
37647;SDS011;23490;53.656;10.076;2022-10-13T14:00:51;17.13;;;7.97;;
37647;SDS011;23490;53.656;10.076;2022-10-13T14:03:17;14.57;;;7.05;;
37647;SDS011;23490;53.656;10.076;2022-10-13T14:05:42;17.02;;;7.43;;
37647;SDS011;23490;53.656;10.076;2022-10-13T14:08:07;18.98;;;8.13;;
37647;SDS011;23490;53.656;10.076;2022-10-13T14:10:33;19.20;;;9.02;;
37647;SDS011;23490;53.656;10.076;2022-10-13T14:12:59;15.43;;;8.57;;
37647;SDS011;23490;53.656;10.076;2022-10-13T14:15:25;13.70;;;7.10;;
37647;SDS011;23490;53.656;10.076;2022-10-13T14:17:51;15.27;;;7.85;;
37647;SDS011;23490;53.656;10.076;2022-10-13T14:20:17;19.75;;;7.18;;
37647;SDS011;23490;53.656;10.076;2022-10-13T14:22:43;14.05;;;7.63;;
37647;SDS011;23490;53.656;10.076;2022-10-13T14:25:08;14.43;;;7.63;;
37647;SDS011;23490;53.656;10.076;2022-10-13T14:27:35;23.65;;;9.13;;
37647;SDS011;23490;53.656;10.076;2022-10-13T14:30:01;14.63;;;8.38;;
37647;SDS011;23490;53.656;10.076;2022-10-13T14:32:30;19.45;;;10.23;;
37647;SDS011;23490;53.656;10.076;2022-10-13T14:34:56;17.73;;;8.77;;
37647;SDS011;23490;53.656;10.076;2022-10-13T14:37:21;18.55;;;7.57;;
37647;SDS011;23490;53.656;10.076;2022-10-13T14:39:46;16.60;;;7.70;;
37647;SDS011;23490;53.656;10.076;2022-10-13T14:42:12;18.50;;;7.28;;
37647;SDS011;23490;53.656;10.076;2022-10-13T14:44:37;12.07;;;6.78;;
37647;SDS011;23490;53.656;10.076;2022-10-13T14:47:02;15.07;;;7.32;;
37647;SDS011;23490;53.656;10.076;2022-10-13T14:49:28;16.00;;;7.47;;
37647;SDS011;23490;53.656;10.076;2022-10-13T14:51:53;19.30;;;7.80;;
37647;SDS011;23490;53.656;10.076;2022-10-13T14:54:18;13.15;;;6.88;;
37647;SDS011;23490;53.656;10.076;2022-10-13T14:56:43;17.23;;;7.80;;
37647;SDS011;23490;53.656;10.076;2022-10-13T14:59:09;16.15;;;7.82;;
37647;SDS011;23490;53.656;10.076;2022-10-13T15:01:35;14.20;;;7.25;;
37647;SDS011;23490;53.656;10.076;2022-10-13T15:04:02;18.50;;;7.03;;
37647;SDS011;23490;53.656;10.076;2022-10-13T15:06:27;11.73;;;6.80;;
37647;SDS011;23490;53.656;10.076;2022-10-13T15:08:53;16.75;;;6.70;;
37647;SDS011;23490;53.656;10.076;2022-10-13T15:11:19;12.63;;;6.40;;
37647;SDS011;23490;53.656;10.076;2022-10-13T15:13:45;10.52;;;6.15;;
37647;SDS011;23490;53.656;10.076;2022-10-13T15:16:13;14.82;;;7.25;;
37647;SDS011;23490;53.656;10.076;2022-10-13T15:18:41;13.43;;;6.82;;
37647;SDS011;23490;53.656;10.076;2022-10-13T15:21:07;10.73;;;6.63;;
37647;SDS011;23490;53.656;10.076;2022-10-13T15:23:33;15.43;;;6.68;;
37647;SDS011;23490;53.656;10.076;2022-10-13T15:25:59;13.93;;;6.80;;
37647;SDS011;23490;53.656;10.076;2022-10-13T15:28:33;15.73;;;7.43;;
37647;SDS011;23490;53.656;10.076;2022-10-13T15:30:59;15.45;;;7.07;;
37647;SDS011;23490;53.656;10.076;2022-10-13T15:33:25;11.82;;;7.05;;
37647;SDS011;23490;53.656;10.076;2022-10-13T15:35:51;17.15;;;7.50;;
37647;SDS011;23490;53.656;10.076;2022-10-13T15:38:17;14.63;;;7.57;;
37647;SDS011;23490;53.656;10.076;2022-10-13T15:40:43;16.75;;;7.47;;
37647;SDS011;23490;53.656;10.076;2022-10-13T15:43:09;14.45;;;8.15;;
37647;SDS011;23490;53.656;10.076;2022-10-13T15:45:35;13.07;;;7.32;;
37647;SDS011;23490;53.656;10.076;2022-10-13T15:48:00;19.88;;;9.55;;
37647;SDS011;23490;53.656;10.076;2022-10-13T15:50:26;17.83;;;7.72;;
37647;SDS011;23490;53.656;10.076;2022-10-13T15:52:52;11.63;;;7.20;;
37647;SDS011;23490;53.656;10.076;2022-10-13T15:55:18;16.25;;;7.88;;
37647;SDS011;23490;53.656;10.076;2022-10-13T15:57:43;15.30;;;7.55;;
37647;SDS011;23490;53.656;10.076;2022-10-13T16:00:09;14.20;;;7.50;;
37647;SDS011;23490;53.656;10.076;2022-10-13T16:02:37;16.23;;;6.57;;
37647;SDS011;23490;53.656;10.076;2022-10-13T16:05:04;13.77;;;6.32;;
37647;SDS011;23490;53.656;10.076;2022-10-13T16:07:30;12.77;;;6.25;;
37647;SDS011;23490;53.656;10.076;2022-10-13T16:09:56;13.20;;;6.07;;
37647;SDS011;23490;53.656;10.076;2022-10-13T16:12:21;20.13;;;7.32;;
37647;SDS011;23490;53.656;10.076;2022-10-13T16:14:48;13.27;;;6.18;;
37647;SDS011;23490;53.656;10.076;2022-10-13T16:17:14;17.23;;;6.55;;